sensor_id;sensor_type;location;lat;lon;timestamp;P1;P2;P0
55043;PMS5003;54902;50.420;18.854;2022-07-23T00:00:01;17;17;12
55043;PMS5003;54902;50.420;18.854;2022-07-23T00:00:19;22;22;16
55043;PMS5003;54902;50.420;18.854;2022-07-23T00:00:36;22;22;16
55043;PMS5003;54902;50.420;18.854;2022-07-23T00:00:52;22;22;16
55043;PMS5003;54902;50.420;18.854;2022-07-23T00:01:08;22;22;16
55043;PMS5003;54902;50.420;18.854;2022-07-23T00:01:24;22;22;16
55043;PMS5003;54902;50.420;18.854;2022-07-23T00:01:40;22;22;16
55043;PMS5003;54902;50.420;18.854;2022-07-23T00:01:56;22;22;16
55043;PMS5003;54902;50.420;18.854;2022-07-23T00:02:13;19;19;14
55043;PMS5003;54902;50.420;18.854;2022-07-23T00:02:29;19;19;14
55043;PMS5003;54902;50.420;18.854;2022-07-23T00:02:54;14;14;10
55043;PMS5003;54902;50.420;18.854;2022-07-23T00:03:10;13;13;11
55043;PMS5003;54902;50.420;18.854;2022-07-23T00:03:35;15;15;11
55043;PMS5003;54902;50.420;18.854;2022-07-23T00:03:51;15;15;11
55043;PMS5003;54902;50.420;18.854;2022-07-23T00:04:09;15;15;11
55043;PMS5003;54902;50.420;18.854;2022-07-23T00:04:25;15;15;11
55043;PMS5003;54902;50.420;18.854;2022-07-23T00:04:41;15;15;11
55043;PMS5003;54902;50.420;18.854;2022-07-23T00:04:57;15;15;11
55043;PMS5003;54902;50.420;18.854;2022-07-23T00:05:14;15;15;11
55043;PMS5003;54902;50.420;18.854;2022-07-23T00:05:30;15;15;11
55043;PMS5003;54902;50.420;18.854;2022-07-23T00:05:46;15;15;11
55043;PMS5003;54902;50.420;18.854;2022-07-23T00:06:02;21;21;15
55043;PMS5003;54902;50.420;18.854;2022-07-23T00:06:18;21;21;15
55043;PMS5003;54902;50.420;18.854;2022-07-23T00:06:34;21;21;15
55043;PMS5003;54902;50.420;18.854;2022-07-23T00:06:50;21;21;15
55043;PMS5003;54902;50.420;18.854;2022-07-23T00:07:06;21;21;15
55043;PMS5003;54902;50.420;18.854;2022-07-23T00:07:22;21;21;15
55043;PMS5003;54902;50.420;18.854;2022-07-23T00:07:38;21;21;15
55043;PMS5003;54902;50.420;18.854;2022-07-23T00:07:55;21;21;15
55043;PMS5003;54902;50.420;18.854;2022-07-23T00:08:11;21;21;15
55043;PMS5003;54902;50.420;18.854;2022-07-23T00:08:27;21;21;15
55043;PMS5003;54902;50.420;18.854;2022-07-23T00:08:43;21;21;15
55043;PMS5003;54902;50.420;18.854;2022-07-23T00:08:59;21;21;15
55043;PMS5003;54902;50.420;18.854;2022-07-23T00:09:15;21;21;15
55043;PMS5003;54902;50.420;18.854;2022-07-23T00:09:32;21;21;15
55043;PMS5003;54902;50.420;18.854;2022-07-23T00:09:48;21;21;15
55043;PMS5003;54902;50.420;18.854;2022-07-23T00:10:04;21;21;15
55043;PMS5003;54902;50.420;18.854;2022-07-23T00:10:21;21;21;15
55043;PMS5003;54902;50.420;18.854;2022-07-23T00:10:37;21;21;15
55043;PMS5003;54902;50.420;18.854;2022-07-23T00:10:53;21;21;15
55043;PMS5003;54902;50.420;18.854;2022-07-23T00:11:10;21;21;15
55043;PMS5003;54902;50.420;18.854;2022-07-23T00:11:26;21;21;15
55043;PMS5003;54902;50.420;18.854;2022-07-23T00:11:42;21;21;15
55043;PMS5003;54902;50.420;18.854;2022-07-23T00:11:58;21;21;15
55043;PMS5003;54902;50.420;18.854;2022-07-23T00:12:14;21;21;15
55043;PMS5003;54902;50.420;18.854;2022-07-23T00:12:30;21;21;15
55043;PMS5003;54902;50.420;18.854;2022-07-23T00:12:46;21;21;15
55043;PMS5003;54902;50.420;18.854;2022-07-23T00:13:03;21;21;15
55043;PMS5003;54902;50.420;18.854;2022-07-23T00:13:19;21;21;15
55043;PMS5003;54902;50.420;18.854;2022-07-23T00:13:35;21;21;15
55043;PMS5003;54902;50.420;18.854;2022-07-23T00:13:51;21;21;15
55043;PMS5003;54902;50.420;18.854;2022-07-23T00:14:10;21;21;15
55043;PMS5003;54902;50.420;18.854;2022-07-23T00:14:26;21;21;15
55043;PMS5003;54902;50.420;18.854;2022-07-23T00:14:42;21;21;15
55043;PMS5003;54902;50.420;18.854;2022-07-23T00:14:48;21;21;15
55043;PMS5003;54902;50.420;18.854;2022-07-23T00:14:58;21;21;15
55043;PMS5003;54902;50.420;18.854;2022-07-23T00:15:14;21;21;15
55043;PMS5003;54902;50.420;18.854;2022-07-23T00:15:30;21;21;15
55043;PMS5003;54902;50.420;18.854;2022-07-23T00:15:46;21;21;15
55043;PMS5003;54902;50.420;18.854;2022-07-23T00:16:02;21;21;15
55043;PMS5003;54902;50.420;18.854;2022-07-23T00:16:19;21;21;15
55043;PMS5003;54902;50.420;18.854;2022-07-23T00:16:35;21;21;15
55043;PMS5003;54902;50.420;18.854;2022-07-23T00:16:51;21;21;15
55043;PMS5003;54902;50.420;18.854;2022-07-23T00:17:07;21;21;15
55043;PMS5003;54902;50.420;18.854;2022-07-23T00:17:23;21;21;15
55043;PMS5003;54902;50.420;18.854;2022-07-23T00:17:39;21;21;15
55043;PMS5003;54902;50.420;18.854;2022-07-23T00:17:56;15;15;12
55043;PMS5003;54902;50.420;18.854;2022-07-23T00:18:12;15;15;12
55043;PMS5003;54902;50.420;18.854;2022-07-23T00:18:28;15;15;12
55043;PMS5003;54902;50.420;18.854;2022-07-23T00:18:44;15;15;12
55043;PMS5003;54902;50.420;18.854;2022-07-23T00:19:00;15;15;12
55043;PMS5003;54902;50.420;18.854;2022-07-23T00:19:18;15;15;12
55043;PMS5003;54902;50.420;18.854;2022-07-23T00:19:37;13;13;10
55043;PMS5003;54902;50.420;18.854;2022-07-23T00:19:53;13;13;10
55043;PMS5003;54902;50.420;18.854;2022-07-23T00:20:09;13;13;10
55043;PMS5003;54902;50.420;18.854;2022-07-23T00:20:26;13;13;10
55043;PMS5003;54902;50.420;18.854;2022-07-23T00:20:48;12;12;9
55043;PMS5003;54902;50.420;18.854;2022-07-23T00:21:04;12;12;9
55043;PMS5003;54902;50.420;18.854;2022-07-23T00:21:20;12;12;9
55043;PMS5003;54902;50.420;18.854;2022-07-23T00:21:36;12;12;9
55043;PMS5003;54902;50.420;18.854;2022-07-23T00:21:52;12;12;9
55043;PMS5003;54902;50.420;18.854;2022-07-23T00:22:08;12;12;9
55043;PMS5003;54902;50.420;18.854;2022-07-23T00:22:24;14;14;11
55043;PMS5003;54902;50.420;18.854;2022-07-23T00:23:04;14;14;11
55043;PMS5003;54902;50.420;18.854;2022-07-23T00:23:20;14;14;11
55043;PMS5003;54902;50.420;18.854;2022-07-23T00:23:36;14;14;11
55043;PMS5003;54902;50.420;18.854;2022-07-23T00:23:52;14;14;11
55043;PMS5003;54902;50.420;18.854;2022-07-23T00:24:08;14;14;11
55043;PMS5003;54902;50.420;18.854;2022-07-23T00:24:24;14;14;11
55043;PMS5003;54902;50.420;18.854;2022-07-23T00:24:40;14;14;11
55043;PMS5003;54902;50.420;18.854;2022-07-23T00:24:56;14;14;11
55043;PMS5003;54902;50.420;18.854;2022-07-23T00:25:13;16;16;13
55043;PMS5003;54902;50.420;18.854;2022-07-23T00:25:29;16;16;13
55043;PMS5003;54902;50.420;18.854;2022-07-23T00:25:45;16;16;13
55043;PMS5003;54902;50.420;18.854;2022-07-23T00:26:01;16;16;13
55043;PMS5003;54902;50.420;18.854;2022-07-23T00:26:17;16;16;13
55043;PMS5003;54902;50.420;18.854;2022-07-23T00:26:33;16;16;13
55043;PMS5003;54902;50.420;18.854;2022-07-23T00:26:49;16;16;13
55043;PMS5003;54902;50.420;18.854;2022-07-23T00:27:05;16;16;13
55043;PMS5003;54902;50.420;18.854;2022-07-23T00:27:22;14;14;12
55043;PMS5003;54902;50.420;18.854;2022-07-23T00:27:39;14;14;12
55043;PMS5003;54902;50.420;18.854;2022-07-23T00:27:55;15;15;13
55043;PMS5003;54902;50.420;18.854;2022-07-23T00:28:11;15;15;13
55043;PMS5003;54902;50.420;18.854;2022-07-23T00:28:27;15;15;13
55043;PMS5003;54902;50.420;18.854;2022-07-23T00:28:43;15;15;13
55043;PMS5003;54902;50.420;18.854;2022-07-23T00:28:59;15;15;13
55043;PMS5003;54902;50.420;18.854;2022-07-23T00:29:15;15;15;13
55043;PMS5003;54902;50.420;18.854;2022-07-23T00:29:31;15;15;13
55043;PMS5003;54902;50.420;18.854;2022-07-23T00:29:48;15;15;13
55043;PMS5003;54902;50.420;18.854;2022-07-23T00:29:54;15;15;13
55043;PMS5003;54902;50.420;18.854;2022-07-23T00:30:04;15;15;13
55043;PMS5003;54902;50.420;18.854;2022-07-23T00:30:21;15;15;13
55043;PMS5003;54902;50.420;18.854;2022-07-23T00:30:37;20;20;16
55043;PMS5003;54902;50.420;18.854;2022-07-23T00:30:53;20;20;16
55043;PMS5003;54902;50.420;18.854;2022-07-23T00:31:10;16;16;13
55043;PMS5003;54902;50.420;18.854;2022-07-23T00:31:26;16;16;13
55043;PMS5003;54902;50.420;18.854;2022-07-23T00:31:43;16;16;13
55043;PMS5003;54902;50.420;18.854;2022-07-23T00:31:59;16;16;13
55043;PMS5003;54902;50.420;18.854;2022-07-23T00:32:15;16;16;13
55043;PMS5003;54902;50.420;18.854;2022-07-23T00:32:31;16;16;13
55043;PMS5003;54902;50.420;18.854;2022-07-23T00:32:48;16;16;13
55043;PMS5003;54902;50.420;18.854;2022-07-23T00:33:07;16;16;13
55043;PMS5003;54902;50.420;18.854;2022-07-23T00:33:23;18;18;13
55043;PMS5003;54902;50.420;18.854;2022-07-23T00:33:39;18;18;13
55043;PMS5003;54902;50.420;18.854;2022-07-23T00:33:55;18;18;13
55043;PMS5003;54902;50.420;18.854;2022-07-23T00:34:16;18;18;13
55043;PMS5003;54902;50.420;18.854;2022-07-23T00:34:32;18;18;13
55043;PMS5003;54902;50.420;18.854;2022-07-23T00:34:49;18;18;13
55043;PMS5003;54902;50.420;18.854;2022-07-23T00:35:05;18;18;13
55043;PMS5003;54902;50.420;18.854;2022-07-23T00:35:21;18;18;13
55043;PMS5003;54902;50.420;18.854;2022-07-23T00:35:40;18;18;13
55043;PMS5003;54902;50.420;18.854;2022-07-23T00:35:56;18;18;13
55043;PMS5003;54902;50.420;18.854;2022-07-23T00:36:12;19;19;14
55043;PMS5003;54902;50.420;18.854;2022-07-23T00:36:28;19;19;14
55043;PMS5003;54902;50.420;18.854;2022-07-23T00:36:46;19;19;14
55043;PMS5003;54902;50.420;18.854;2022-07-23T00:37:02;19;19;14
55043;PMS5003;54902;50.420;18.854;2022-07-23T00:37:18;19;19;14
55043;PMS5003;54902;50.420;18.854;2022-07-23T00:37:34;19;19;14
55043;PMS5003;54902;50.420;18.854;2022-07-23T00:37:50;19;19;14
55043;PMS5003;54902;50.420;18.854;2022-07-23T00:38:07;19;19;14
55043;PMS5003;54902;50.420;18.854;2022-07-23T00:38:24;19;19;14
55043;PMS5003;54902;50.420;18.854;2022-07-23T00:38:40;19;19;14
55043;PMS5003;54902;50.420;18.854;2022-07-23T00:38:56;19;19;14
55043;PMS5003;54902;50.420;18.854;2022-07-23T00:39:13;19;19;14
55043;PMS5003;54902;50.420;18.854;2022-07-23T00:39:29;19;19;14
55043;PMS5003;54902;50.420;18.854;2022-07-23T00:39:45;19;19;14
55043;PMS5003;54902;50.420;18.854;2022-07-23T00:40:01;19;19;14
55043;PMS5003;54902;50.420;18.854;2022-07-23T00:40:17;19;19;14
55043;PMS5003;54902;50.420;18.854;2022-07-23T00:40:33;19;19;14
55043;PMS5003;54902;50.420;18.854;2022-07-23T00:40:50;15;15;11
55043;PMS5003;54902;50.420;18.854;2022-07-23T00:41:06;15;15;11
55043;PMS5003;54902;50.420;18.854;2022-07-23T00:41:22;15;15;11
55043;PMS5003;54902;50.420;18.854;2022-07-23T00:41:38;11;11;10
55043;PMS5003;54902;50.420;18.854;2022-07-23T00:41:54;11;11;10
55043;PMS5003;54902;50.420;18.854;2022-07-23T00:42:11;11;11;10
55043;PMS5003;54902;50.420;18.854;2022-07-23T00:42:27;11;11;10
55043;PMS5003;54902;50.420;18.854;2022-07-23T00:42:43;11;11;10
55043;PMS5003;54902;50.420;18.854;2022-07-23T00:42:59;11;11;10
55043;PMS5003;54902;50.420;18.854;2022-07-23T00:43:15;11;11;10
55043;PMS5003;54902;50.420;18.854;2022-07-23T00:43:32;11;11;10
55043;PMS5003;54902;50.420;18.854;2022-07-23T00:43:48;11;11;10
55043;PMS5003;54902;50.420;18.854;2022-07-23T00:44:33;13;13;12
55043;PMS5003;54902;50.420;18.854;2022-07-23T00:44:49;13;13;12
55043;PMS5003;54902;50.420;18.854;2022-07-23T00:44:55;13;13;12
55043;PMS5003;54902;50.420;18.854;2022-07-23T00:45:05;13;13;12
55043;PMS5003;54902;50.420;18.854;2022-07-23T00:45:22;13;13;12
55043;PMS5003;54902;50.420;18.854;2022-07-23T00:45:38;13;13;12
55043;PMS5003;54902;50.420;18.854;2022-07-23T00:45:54;13;13;12
55043;PMS5003;54902;50.420;18.854;2022-07-23T00:46:10;13;13;12
55043;PMS5003;54902;50.420;18.854;2022-07-23T00:46:26;13;13;12
55043;PMS5003;54902;50.420;18.854;2022-07-23T00:46:49;13;13;12
55043;PMS5003;54902;50.420;18.854;2022-07-23T00:47:09;13;13;12
55043;PMS5003;54902;50.420;18.854;2022-07-23T00:47:25;13;13;12
55043;PMS5003;54902;50.420;18.854;2022-07-23T00:47:41;13;13;12
55043;PMS5003;54902;50.420;18.854;2022-07-23T00:47:57;13;13;12
55043;PMS5003;54902;50.420;18.854;2022-07-23T00:48:13;13;13;12
55043;PMS5003;54902;50.420;18.854;2022-07-23T00:48:29;13;13;12
55043;PMS5003;54902;50.420;18.854;2022-07-23T00:48:45;13;13;12
55043;PMS5003;54902;50.420;18.854;2022-07-23T00:49:03;12;12;10
55043;PMS5003;54902;50.420;18.854;2022-07-23T00:49:22;12;12;10
55043;PMS5003;54902;50.420;18.854;2022-07-23T00:49:40;12;12;10
55043;PMS5003;54902;50.420;18.854;2022-07-23T00:49:56;12;12;10
55043;PMS5003;54902;50.420;18.854;2022-07-23T00:50:13;15;15;11
55043;PMS5003;54902;50.420;18.854;2022-07-23T00:50:29;15;15;11
55043;PMS5003;54902;50.420;18.854;2022-07-23T00:50:45;15;15;11
55043;PMS5003;54902;50.420;18.854;2022-07-23T00:51:02;13;13;10
55043;PMS5003;54902;50.420;18.854;2022-07-23T00:51:19;13;13;10
55043;PMS5003;54902;50.420;18.854;2022-07-23T00:51:35;13;13;10
55043;PMS5003;54902;50.420;18.854;2022-07-23T00:51:51;13;13;10
55043;PMS5003;54902;50.420;18.854;2022-07-23T00:52:07;13;13;10
55043;PMS5003;54902;50.420;18.854;2022-07-23T00:52:23;13;13;10
55043;PMS5003;54902;50.420;18.854;2022-07-23T00:52:40;13;13;10
55043;PMS5003;54902;50.420;18.854;2022-07-23T00:52:56;16;16;12
55043;PMS5003;54902;50.420;18.854;2022-07-23T00:53:13;16;16;12
55043;PMS5003;54902;50.420;18.854;2022-07-23T00:53:30;16;16;12
55043;PMS5003;54902;50.420;18.854;2022-07-23T00:53:47;16;16;12
55043;PMS5003;54902;50.420;18.854;2022-07-23T00:54:03;16;16;12
55043;PMS5003;54902;50.420;18.854;2022-07-23T00:54:20;16;16;12
55043;PMS5003;54902;50.420;18.854;2022-07-23T00:54:39;16;16;12
55043;PMS5003;54902;50.420;18.854;2022-07-23T00:54:55;16;16;12
55043;PMS5003;54902;50.420;18.854;2022-07-23T00:55:12;16;16;12
55043;PMS5003;54902;50.420;18.854;2022-07-23T00:55:29;16;16;12
55043;PMS5003;54902;50.420;18.854;2022-07-23T00:55:45;18;18;13
55043;PMS5003;54902;50.420;18.854;2022-07-23T00:56:04;18;18;13
55043;PMS5003;54902;50.420;18.854;2022-07-23T00:56:21;18;18;13
55043;PMS5003;54902;50.420;18.854;2022-07-23T00:56:37;18;18;13
55043;PMS5003;54902;50.420;18.854;2022-07-23T00:56:53;18;18;13
55043;PMS5003;54902;50.420;18.854;2022-07-23T00:57:10;18;18;13
55043;PMS5003;54902;50.420;18.854;2022-07-23T00:57:26;18;18;13
55043;PMS5003;54902;50.420;18.854;2022-07-23T00:57:42;18;18;13
55043;PMS5003;54902;50.420;18.854;2022-07-23T00:57:59;18;18;13
55043;PMS5003;54902;50.420;18.854;2022-07-23T00:58:16;18;18;13
55043;PMS5003;54902;50.420;18.854;2022-07-23T00:58:33;18;18;13
55043;PMS5003;54902;50.420;18.854;2022-07-23T00:58:50;18;18;13
55043;PMS5003;54902;50.420;18.854;2022-07-23T00:59:07;18;18;13
55043;PMS5003;54902;50.420;18.854;2022-07-23T00:59:24;18;18;13
55043;PMS5003;54902;50.420;18.854;2022-07-23T00:59:40;18;18;13
55043;PMS5003;54902;50.420;18.854;2022-07-23T00:59:56;18;18;13
55043;PMS5003;54902;50.420;18.854;2022-07-23T00:59:58;18;18;13
55043;PMS5003;54902;50.420;18.854;2022-07-23T01:00:16;16;16;12
55043;PMS5003;54902;50.420;18.854;2022-07-23T01:00:32;16;16;12
55043;PMS5003;54902;50.420;18.854;2022-07-23T01:00:48;16;16;12
55043;PMS5003;54902;50.420;18.854;2022-07-23T01:01:04;16;16;12
55043;PMS5003;54902;50.420;18.854;2022-07-23T01:01:26;10;10;9
55043;PMS5003;54902;50.420;18.854;2022-07-23T01:01:42;10;10;9
55043;PMS5003;54902;50.420;18.854;2022-07-23T01:02:04;10;10;9
55043;PMS5003;54902;50.420;18.854;2022-07-23T01:02:22;12;12;11
55043;PMS5003;54902;50.420;18.854;2022-07-23T01:02:38;12;12;11
55043;PMS5003;54902;50.420;18.854;2022-07-23T01:02:55;12;12;11
55043;PMS5003;54902;50.420;18.854;2022-07-23T01:03:11;12;12;11
55043;PMS5003;54902;50.420;18.854;2022-07-23T01:03:27;12;12;11
55043;PMS5003;54902;50.420;18.854;2022-07-23T01:03:44;12;12;11
55043;PMS5003;54902;50.420;18.854;2022-07-23T01:04:00;12;12;11
55043;PMS5003;54902;50.420;18.854;2022-07-23T01:04:16;18;18;15
55043;PMS5003;54902;50.420;18.854;2022-07-23T01:04:32;18;18;15
55043;PMS5003;54902;50.420;18.854;2022-07-23T01:04:48;18;18;15
55043;PMS5003;54902;50.420;18.854;2022-07-23T01:05:04;18;18;15
55043;PMS5003;54902;50.420;18.854;2022-07-23T01:05:21;18;18;15
55043;PMS5003;54902;50.420;18.854;2022-07-23T01:05:39;18;18;15
55043;PMS5003;54902;50.420;18.854;2022-07-23T01:05:55;18;18;15
55043;PMS5003;54902;50.420;18.854;2022-07-23T01:06:13;18;18;15
55043;PMS5003;54902;50.420;18.854;2022-07-23T01:06:30;18;18;15
55043;PMS5003;54902;50.420;18.854;2022-07-23T01:06:51;18;18;15
55043;PMS5003;54902;50.420;18.854;2022-07-23T01:07:07;20;20;16
55043;PMS5003;54902;50.420;18.854;2022-07-23T01:07:24;20;20;16
55043;PMS5003;54902;50.420;18.854;2022-07-23T01:07:40;20;20;16
55043;PMS5003;54902;50.420;18.854;2022-07-23T01:07:56;20;20;16
55043;PMS5003;54902;50.420;18.854;2022-07-23T01:08:12;20;20;16
55043;PMS5003;54902;50.420;18.854;2022-07-23T01:08:29;20;20;16
55043;PMS5003;54902;50.420;18.854;2022-07-23T01:08:45;20;20;16
55043;PMS5003;54902;50.420;18.854;2022-07-23T01:09:02;20;20;16
55043;PMS5003;54902;50.420;18.854;2022-07-23T01:09:19;20;20;16
55043;PMS5003;54902;50.420;18.854;2022-07-23T01:09:36;20;20;16
55043;PMS5003;54902;50.420;18.854;2022-07-23T01:09:53;20;20;16
55043;PMS5003;54902;50.420;18.854;2022-07-23T01:10:10;20;20;16
55043;PMS5003;54902;50.420;18.854;2022-07-23T01:10:38;20;20;16
55043;PMS5003;54902;50.420;18.854;2022-07-23T01:10:55;20;20;16
55043;PMS5003;54902;50.420;18.854;2022-07-23T01:11:12;20;20;16
55043;PMS5003;54902;50.420;18.854;2022-07-23T01:11:29;20;20;16
55043;PMS5003;54902;50.420;18.854;2022-07-23T01:11:46;20;20;16
55043;PMS5003;54902;50.420;18.854;2022-07-23T01:12:03;20;20;16
55043;PMS5003;54902;50.420;18.854;2022-07-23T01:12:20;20;20;16
55043;PMS5003;54902;50.420;18.854;2022-07-23T01:12:36;20;20;16
55043;PMS5003;54902;50.420;18.854;2022-07-23T01:12:52;20;20;16
55043;PMS5003;54902;50.420;18.854;2022-07-23T01:13:09;11;11;9
55043;PMS5003;54902;50.420;18.854;2022-07-23T01:13:26;11;11;9
55043;PMS5003;54902;50.420;18.854;2022-07-23T01:13:44;11;11;9
55043;PMS5003;54902;50.420;18.854;2022-07-23T01:14:26;11;11;9
55043;PMS5003;54902;50.420;18.854;2022-07-23T01:14:42;11;11;9
55043;PMS5003;54902;50.420;18.854;2022-07-23T01:14:58;11;11;9
55043;PMS5003;54902;50.420;18.854;2022-07-23T01:15:00;11;11;9
55043;PMS5003;54902;50.420;18.854;2022-07-23T01:15:16;11;11;9
55043;PMS5003;54902;50.420;18.854;2022-07-23T01:15:33;11;11;9
55043;PMS5003;54902;50.420;18.854;2022-07-23T01:15:50;15;15;12
55043;PMS5003;54902;50.420;18.854;2022-07-23T01:16:06;15;15;12
55043;PMS5003;54902;50.420;18.854;2022-07-23T01:16:23;15;15;12
55043;PMS5003;54902;50.420;18.854;2022-07-23T01:16:39;15;15;12
55043;PMS5003;54902;50.420;18.854;2022-07-23T01:16:56;15;15;12
55043;PMS5003;54902;50.420;18.854;2022-07-23T01:17:12;15;15;12
55043;PMS5003;54902;50.420;18.854;2022-07-23T01:17:28;15;15;12
55043;PMS5003;54902;50.420;18.854;2022-07-23T01:17:44;15;15;12
55043;PMS5003;54902;50.420;18.854;2022-07-23T01:18:00;15;15;12
55043;PMS5003;54902;50.420;18.854;2022-07-23T01:18:17;15;15;12
55043;PMS5003;54902;50.420;18.854;2022-07-23T01:18:33;15;15;12
55043;PMS5003;54902;50.420;18.854;2022-07-23T01:18:49;15;15;12
55043;PMS5003;54902;50.420;18.854;2022-07-23T01:19:05;15;15;12
55043;PMS5003;54902;50.420;18.854;2022-07-23T01:19:22;15;15;12
55043;PMS5003;54902;50.420;18.854;2022-07-23T01:19:38;15;15;12
55043;PMS5003;54902;50.420;18.854;2022-07-23T01:19:54;15;15;12
55043;PMS5003;54902;50.420;18.854;2022-07-23T01:20:10;15;15;12
55043;PMS5003;54902;50.420;18.854;2022-07-23T01:20:26;15;15;12
55043;PMS5003;54902;50.420;18.854;2022-07-23T01:20:42;15;15;12
55043;PMS5003;54902;50.420;18.854;2022-07-23T01:20:58;15;15;12
55043;PMS5003;54902;50.420;18.854;2022-07-23T01:21:14;15;15;12
55043;PMS5003;54902;50.420;18.854;2022-07-23T01:21:38;15;15;12
55043;PMS5003;54902;50.420;18.854;2022-07-23T01:21:56;15;15;12
55043;PMS5003;54902;50.420;18.854;2022-07-23T01:22:14;15;15;12
55043;PMS5003;54902;50.420;18.854;2022-07-23T01:22:33;15;15;12
55043;PMS5003;54902;50.420;18.854;2022-07-23T01:22:49;15;15;12
55043;PMS5003;54902;50.420;18.854;2022-07-23T01:23:06;15;15;12
55043;PMS5003;54902;50.420;18.854;2022-07-23T01:23:22;15;15;12
55043;PMS5003;54902;50.420;18.854;2022-07-23T01:23:38;15;15;12
55043;PMS5003;54902;50.420;18.854;2022-07-23T01:23:55;15;15;12
55043;PMS5003;54902;50.420;18.854;2022-07-23T01:24:11;15;15;12
55043;PMS5003;54902;50.420;18.854;2022-07-23T01:24:28;15;15;12
55043;PMS5003;54902;50.420;18.854;2022-07-23T01:24:44;15;15;12
55043;PMS5003;54902;50.420;18.854;2022-07-23T01:25:01;15;15;12
55043;PMS5003;54902;50.420;18.854;2022-07-23T01:25:17;15;15;12
55043;PMS5003;54902;50.420;18.854;2022-07-23T01:25:33;15;15;12
55043;PMS5003;54902;50.420;18.854;2022-07-23T01:25:51;15;15;12
55043;PMS5003;54902;50.420;18.854;2022-07-23T01:26:08;15;15;12
55043;PMS5003;54902;50.420;18.854;2022-07-23T01:26:24;15;15;12
55043;PMS5003;54902;50.420;18.854;2022-07-23T01:26:41;15;15;12
55043;PMS5003;54902;50.420;18.854;2022-07-23T01:26:59;15;15;12
55043;PMS5003;54902;50.420;18.854;2022-07-23T01:27:16;12;12;9
55043;PMS5003;54902;50.420;18.854;2022-07-23T01:27:34;12;12;9
55043;PMS5003;54902;50.420;18.854;2022-07-23T01:27:51;12;12;9
55043;PMS5003;54902;50.420;18.854;2022-07-23T01:28:08;12;12;9
55043;PMS5003;54902;50.420;18.854;2022-07-23T01:28:25;12;12;9
55043;PMS5003;54902;50.420;18.854;2022-07-23T01:28:41;12;12;9
55043;PMS5003;54902;50.420;18.854;2022-07-23T01:28:57;12;12;9
55043;PMS5003;54902;50.420;18.854;2022-07-23T01:29:13;12;12;9
55043;PMS5003;54902;50.420;18.854;2022-07-23T01:29:30;12;12;9
55043;PMS5003;54902;50.420;18.854;2022-07-23T01:29:47;15;15;11
55043;PMS5003;54902;50.420;18.854;2022-07-23T01:30:00;15;15;11
55043;PMS5003;54902;50.420;18.854;2022-07-23T01:30:04;15;15;11
55043;PMS5003;54902;50.420;18.854;2022-07-23T01:30:21;15;15;11
55043;PMS5003;54902;50.420;18.854;2022-07-23T01:30:37;15;15;11
55043;PMS5003;54902;50.420;18.854;2022-07-23T01:30:53;15;15;11
55043;PMS5003;54902;50.420;18.854;2022-07-23T01:31:09;15;15;11
55043;PMS5003;54902;50.420;18.854;2022-07-23T01:31:25;15;15;11
55043;PMS5003;54902;50.420;18.854;2022-07-23T01:31:42;15;15;11
55043;PMS5003;54902;50.420;18.854;2022-07-23T01:31:59;15;15;11
55043;PMS5003;54902;50.420;18.854;2022-07-23T01:32:15;15;15;11
55043;PMS5003;54902;50.420;18.854;2022-07-23T01:32:31;20;20;15
55043;PMS5003;54902;50.420;18.854;2022-07-23T01:32:47;20;20;15
55043;PMS5003;54902;50.420;18.854;2022-07-23T01:33:03;20;20;15
55043;PMS5003;54902;50.420;18.854;2022-07-23T01:33:19;20;20;15
55043;PMS5003;54902;50.420;18.854;2022-07-23T01:33:35;20;20;15
55043;PMS5003;54902;50.420;18.854;2022-07-23T01:33:51;20;20;15
55043;PMS5003;54902;50.420;18.854;2022-07-23T01:34:07;20;20;15
55043;PMS5003;54902;50.420;18.854;2022-07-23T01:34:23;20;20;15
55043;PMS5003;54902;50.420;18.854;2022-07-23T01:34:39;20;20;15
55043;PMS5003;54902;50.420;18.854;2022-07-23T01:34:56;20;20;15
55043;PMS5003;54902;50.420;18.854;2022-07-23T01:35:12;20;20;15
55043;PMS5003;54902;50.420;18.854;2022-07-23T01:35:29;20;20;15
55043;PMS5003;54902;50.420;18.854;2022-07-23T01:35:45;20;20;15
55043;PMS5003;54902;50.420;18.854;2022-07-23T01:36:02;20;20;15
55043;PMS5003;54902;50.420;18.854;2022-07-23T01:36:18;20;20;15
55043;PMS5003;54902;50.420;18.854;2022-07-23T01:36:35;15;15;11
55043;PMS5003;54902;50.420;18.854;2022-07-23T01:36:52;15;15;11
55043;PMS5003;54902;50.420;18.854;2022-07-23T01:37:16;13;13;10
55043;PMS5003;54902;50.420;18.854;2022-07-23T01:37:32;13;13;10
55043;PMS5003;54902;50.420;18.854;2022-07-23T01:37:48;13;13;10
55043;PMS5003;54902;50.420;18.854;2022-07-23T01:38:04;17;17;13
55043;PMS5003;54902;50.420;18.854;2022-07-23T01:38:20;17;17;13
55043;PMS5003;54902;50.420;18.854;2022-07-23T01:38:36;17;17;13
55043;PMS5003;54902;50.420;18.854;2022-07-23T01:38:52;17;17;13
55043;PMS5003;54902;50.420;18.854;2022-07-23T01:39:08;17;17;13
55043;PMS5003;54902;50.420;18.854;2022-07-23T01:39:24;17;17;13
55043;PMS5003;54902;50.420;18.854;2022-07-23T01:39:40;17;17;13
55043;PMS5003;54902;50.420;18.854;2022-07-23T01:39:56;17;17;13
55043;PMS5003;54902;50.420;18.854;2022-07-23T01:40:12;17;17;13
55043;PMS5003;54902;50.420;18.854;2022-07-23T01:40:28;17;17;13
55043;PMS5003;54902;50.420;18.854;2022-07-23T01:40:45;19;19;15
55043;PMS5003;54902;50.420;18.854;2022-07-23T01:41:01;19;19;15
55043;PMS5003;54902;50.420;18.854;2022-07-23T01:41:17;19;19;15
55043;PMS5003;54902;50.420;18.854;2022-07-23T01:41:34;19;19;15
55043;PMS5003;54902;50.420;18.854;2022-07-23T01:41:50;19;19;15
55043;PMS5003;54902;50.420;18.854;2022-07-23T01:42:06;19;19;15
55043;PMS5003;54902;50.420;18.854;2022-07-23T01:42:22;19;19;15
55043;PMS5003;54902;50.420;18.854;2022-07-23T01:42:38;19;19;15
55043;PMS5003;54902;50.420;18.854;2022-07-23T01:42:55;19;19;15
55043;PMS5003;54902;50.420;18.854;2022-07-23T01:43:11;19;19;15
55043;PMS5003;54902;50.420;18.854;2022-07-23T01:43:27;19;19;15
55043;PMS5003;54902;50.420;18.854;2022-07-23T01:43:43;19;19;15
55043;PMS5003;54902;50.420;18.854;2022-07-23T01:43:59;19;19;15
55043;PMS5003;54902;50.420;18.854;2022-07-23T01:44:15;19;19;15
55043;PMS5003;54902;50.420;18.854;2022-07-23T01:44:31;19;19;15
55043;PMS5003;54902;50.420;18.854;2022-07-23T01:44:47;19;19;15